createdAt,value
2018-12-20T00:00:06.421Z,59196.91
2018-12-20T00:02:34.942Z,59227.74
2018-12-20T00:05:05.899Z,59231.85
2018-12-20T00:07:34.428Z,59214.38
2018-12-20T00:10:04.370Z,59234.93
2018-12-20T00:12:33.051Z,59216.43
2018-12-20T00:15:02.762Z,59210.27
2018-12-20T00:17:36.608Z,59215.41
2018-12-20T00:20:05.658Z,59197.94
2018-12-20T00:22:34.306Z,59192.80
2018-12-20T00:25:04.711Z,59219.52
2018-12-20T00:27:33.216Z,59207.19
2018-12-20T00:30:02.712Z,59241.09
2018-12-20T00:32:31.203Z,59206.16
2018-12-20T00:34:59.698Z,59203.08
2018-12-20T00:37:28.322Z,59191.78
2018-12-20T00:39:56.815Z,59209.24
2018-12-20T00:42:25.423Z,59229.79
2018-12-20T00:44:54.096Z,59204.11
2018-12-20T00:47:26.084Z,59239.04
2018-12-20T00:49:54.912Z,59192.80
2018-12-20T00:52:23.404Z,59192.80
2018-12-20T00:54:52.411Z,59219.52
2018-12-20T00:57:21.289Z,59179.45
2018-12-20T00:59:49.861Z,59219.52
2018-12-20T01:02:18.343Z,59187.67
2018-12-20T01:04:46.924Z,59196.91
2018-12-20T01:07:15.423Z,59195.89
2018-12-20T01:09:44.205Z,59173.29
2018-12-20T01:12:13.194Z,59172.26
2018-12-20T01:14:45.352Z,59198.97
2018-12-20T01:17:12.407Z,59205.13
2018-12-20T01:19:41.152Z,59187.67
2018-12-20T01:22:09.952Z,59182.53
2018-12-20T01:24:38.579Z,59234.93
2018-12-20T01:27:07.406Z,59164.04
2018-12-20T01:29:35.873Z,59204.11
2018-12-20T01:32:05.753Z,59213.35
2018-12-20T01:34:34.527Z,59180.48
2018-12-20T01:37:04.544Z,59188.70
2018-12-20T01:39:33.299Z,59200.00
2018-12-20T01:42:03.085Z,59163.01
2018-12-20T01:44:31.770Z,59175.34
2018-12-20T01:47:00.436Z,59163.01
2018-12-20T01:49:29.127Z,59183.56
2018-12-20T01:51:58.299Z,59184.59
2018-12-20T01:54:27.184Z,59214.38
2018-12-20T01:56:55.887Z,59176.37
2018-12-20T01:59:24.625Z,59167.12
2018-12-20T02:01:53.276Z,59184.59
2018-12-20T02:04:21.990Z,59164.04
2018-12-20T02:06:50.671Z,59222.60
2018-12-20T02:09:19.373Z,59203.08
2018-12-20T02:11:47.978Z,59212.32
2018-12-20T02:14:16.658Z,59194.86
2018-12-20T02:16:45.248Z,59177.39
2018-12-20T02:19:15.635Z,59227.74
2018-12-20T02:21:44.666Z,59193.83
2018-12-20T02:24:13.264Z,59196.91
2018-12-20T02:26:41.764Z,59177.39
2018-12-20T02:29:10.776Z,59186.64
2018-12-20T02:31:39.286Z,59212.32
2018-12-20T02:34:07.872Z,59194.86
2018-12-20T02:36:36.406Z,59210.27
2018-12-20T02:39:08.033Z,59140.41
2018-12-20T02:41:37.727Z,59197.94
2018-12-20T02:44:06.301Z,59156.85
2018-12-20T02:46:35.020Z,59167.12
2018-12-20T02:49:05.712Z,59150.68
2018-12-20T02:51:34.313Z,59184.59
2018-12-20T02:54:04.505Z,59195.89
2018-12-20T02:56:33.146Z,59205.13
2018-12-20T02:59:03.265Z,59154.79
2018-12-20T03:01:31.863Z,59157.88
2018-12-20T03:04:00.953Z,59180.48
2018-12-20T03:06:30.095Z,59216.43
2018-12-20T03:08:58.639Z,59135.27
2018-12-20T03:11:27.355Z,59171.23
2018-12-20T03:13:55.919Z,59173.29
2018-12-20T03:16:24.509Z,59185.61
2018-12-20T03:18:53.189Z,59144.52
2018-12-20T03:21:22.770Z,59169.18
2018-12-20T03:23:51.238Z,59158.90
2018-12-20T03:26:19.793Z,59178.42
2018-12-20T03:28:48.414Z,59160.96
2018-12-20T03:31:17.114Z,59159.93
2018-12-20T03:33:46.077Z,59195.89
2018-12-20T03:36:14.809Z,59189.72
2018-12-20T03:38:43.478Z,59174.31
2018-12-20T03:41:12.080Z,59134.25
2018-12-20T03:43:40.619Z,59184.59
2018-12-20T03:46:09.422Z,59175.34
2018-12-20T03:48:38.639Z,59181.50
2018-12-20T03:51:07.226Z,59161.98
2018-12-20T03:53:35.941Z,59170.20
2018-12-20T03:56:05.207Z,59197.94
2018-12-20T03:58:33.867Z,59201.02
2018-12-20T04:01:04.307Z,59214.38
2018-12-20T04:03:33.125Z,59146.57
2018-12-20T04:06:03.260Z,59182.53
2018-12-20T04:08:31.972Z,59185.61
2018-12-20T04:11:00.653Z,59179.45
2018-12-20T04:13:29.251Z,59156.85
2018-12-20T04:15:58.119Z,59176.37
2018-12-20T04:18:26.745Z,59164.04
2018-12-20T04:20:55.340Z,59175.34
2018-12-20T04:23:26.131Z,59137.33
2018-12-20T04:25:54.674Z,59189.72
2018-12-20T04:28:23.233Z,59163.01
2018-12-20T04:30:52.035Z,59144.52
2018-12-20T04:33:20.644Z,59186.64
2018-12-20T04:35:49.203Z,59157.88
2018-12-20T04:38:17.849Z,59169.18
2018-12-20T04:40:46.948Z,59139.38
2018-12-20T04:43:15.692Z,59169.18
2018-12-20T04:45:46.847Z,59154.79
2018-12-20T04:48:15.892Z,59158.90
2018-12-20T04:50:44.647Z,59179.45
2018-12-20T04:53:13.112Z,59159.93
2018-12-20T04:55:41.641Z,59170.20
2018-12-20T04:58:10.184Z,59128.08
2018-12-20T05:00:40.585Z,59172.26
2018-12-20T05:03:09.543Z,59167.12
2018-12-20T05:05:38.144Z,59181.50
2018-12-20T05:08:06.672Z,59194.86
2018-12-20T05:10:35.240Z,59181.50
2018-12-20T05:13:05.507Z,59169.18
2018-12-20T05:15:34.028Z,59167.12
2018-12-20T05:18:03.915Z,59180.48
2018-12-20T05:20:32.737Z,59177.39
2018-12-20T05:23:02.816Z,59121.92
2018-12-20T05:25:32.487Z,59153.77
2018-12-20T05:28:03.160Z,59169.18
2018-12-20T05:30:31.698Z,59171.23
2018-12-20T05:33:00.203Z,59154.79
2018-12-20T05:35:28.824Z,59134.25
2018-12-20T05:37:57.616Z,59156.85
2018-12-20T05:40:26.608Z,59164.04
2018-12-20T05:42:55.099Z,59170.20
2018-12-20T05:45:23.583Z,59168.15
2018-12-20T05:47:52.430Z,59146.57
2018-12-20T05:50:21.277Z,59180.48
2018-12-20T05:52:50.221Z,59134.25
2018-12-20T05:55:19.046Z,59176.37
2018-12-20T05:57:47.718Z,59179.45
2018-12-20T06:00:16.792Z,59171.23
2018-12-20T06:02:45.536Z,59182.53
2018-12-20T06:05:14.432Z,59173.29
2018-12-20T06:07:43.256Z,59164.04
2018-12-20T06:10:11.984Z,59174.31
2018-12-20T06:12:40.573Z,59144.52
2018-12-20T06:15:09.380Z,59182.53
2018-12-20T06:17:37.940Z,59177.39
2018-12-20T06:20:06.617Z,59150.68
2018-12-20T06:22:35.193Z,59178.42
2018-12-20T06:25:06.140Z,59172.26
2018-12-20T06:27:34.834Z,59209.24
2018-12-20T06:30:05.675Z,59193.83
2018-12-20T06:32:34.238Z,59211.30
2018-12-20T06:35:04.521Z,59183.56
2018-12-20T06:37:33.066Z,59157.88
2018-12-20T06:40:02.801Z,59175.34
2018-12-20T06:42:32.149Z,59196.91
2018-12-20T06:45:00.651Z,59171.23
2018-12-20T06:47:29.169Z,59177.39
2018-12-20T06:49:57.671Z,59173.29
2018-12-20T06:52:27.712Z,59191.78
2018-12-20T06:54:56.405Z,59184.59
2018-12-20T06:57:24.877Z,59168.15
2018-12-20T06:59:53.349Z,59159.93
2018-12-20T07:02:21.867Z,59192.80
2018-12-20T07:04:50.364Z,59167.12
2018-12-20T07:07:18.859Z,59172.26
2018-12-20T07:09:47.388Z,59154.79
2018-12-20T07:12:15.877Z,59195.89
2018-12-20T07:14:44.422Z,59165.07
2018-12-20T07:17:13.025Z,59142.46
2018-12-20T07:19:41.510Z,59184.59
2018-12-20T07:22:10.102Z,59202.05
2018-12-20T07:24:38.628Z,59220.54
2018-12-20T07:27:07.865Z,59180.48
2018-12-20T07:29:37.403Z,59170.20
2018-12-20T07:32:06.022Z,59171.23
2018-12-20T07:34:34.549Z,59171.23
2018-12-20T07:37:04.699Z,59155.82
2018-12-20T07:39:33.261Z,59132.19
2018-12-20T07:42:02.815Z,59172.26
2018-12-20T07:44:31.322Z,59171.23
2018-12-20T07:46:59.838Z,59148.63
2018-12-20T07:49:28.566Z,59134.25
2018-12-20T07:51:57.111Z,59155.82
2018-12-20T07:54:25.712Z,59160.96
2018-12-20T07:56:54.606Z,59160.96
2018-12-20T07:59:25.041Z,59144.52
2018-12-20T08:01:53.523Z,59156.85
2018-12-20T08:04:22.051Z,59171.23
2018-12-20T08:06:50.514Z,59163.01
2018-12-20T08:09:19.105Z,59192.80
2018-12-20T08:11:47.674Z,59128.08
2018-12-20T08:14:16.277Z,59161.98
2018-12-20T08:16:46.169Z,59139.38
2018-12-20T08:19:15.002Z,59177.39
2018-12-20T08:21:43.558Z,59158.90
2018-12-20T08:24:12.108Z,59156.85
2018-12-20T08:26:40.758Z,59129.11
2018-12-20T08:29:09.272Z,59146.57
2018-12-20T08:31:37.745Z,59167.12
2018-12-20T08:34:06.255Z,59181.50
2018-12-20T08:36:34.838Z,59165.07
2018-12-20T08:39:07.064Z,59135.27
2018-12-20T08:41:37.141Z,59133.22
2018-12-20T08:44:05.603Z,59136.30
2018-12-20T08:46:34.118Z,59128.08
2018-12-20T08:49:03.789Z,59127.05
2018-12-20T08:51:32.303Z,59154.79
2018-12-20T08:54:00.765Z,59143.49
2018-12-20T08:56:29.365Z,59112.67
2018-12-20T08:58:57.848Z,59148.63
2018-12-20T09:01:26.387Z,59158.90
2018-12-20T09:03:54.888Z,59125.00
2018-12-20T09:06:23.512Z,59108.56
2018-12-20T09:08:52.076Z,59150.68
2018-12-20T09:11:20.585Z,59179.45
2018-12-20T09:13:49.497Z,59175.34
2018-12-20T09:16:21.953Z,59149.66
2018-12-20T09:18:50.593Z,59154.79
2018-12-20T09:21:19.160Z,59144.52
2018-12-20T09:23:47.725Z,59165.07
2018-12-20T09:26:16.527Z,59131.16
2018-12-20T09:28:45.000Z,59147.60
2018-12-20T09:31:13.583Z,59129.11
2018-12-20T09:33:42.084Z,59144.52
2018-12-20T09:36:10.723Z,59131.16
2018-12-20T09:38:39.613Z,59119.86
2018-12-20T09:41:08.224Z,59155.82
2018-12-20T09:43:36.804Z,59167.12
2018-12-20T09:46:05.751Z,59108.56
2018-12-20T09:48:34.247Z,59159.93
2018-12-20T09:51:03.929Z,59180.48
2018-12-20T09:53:32.613Z,59161.98
2018-12-20T09:56:02.964Z,59175.34
2018-12-20T09:58:31.502Z,59145.55
2018-12-20T10:01:00.062Z,59172.26
2018-12-20T10:03:28.576Z,59173.29
2018-12-20T10:05:57.130Z,59120.89
2018-12-20T10:08:25.785Z,59156.85
2018-12-20T10:10:54.734Z,59141.44
2018-12-20T10:13:23.306Z,59151.71
2018-12-20T10:15:51.855Z,59136.30
2018-12-20T10:18:20.526Z,59160.96
2018-12-20T10:20:49.109Z,59148.63
2018-12-20T10:23:17.828Z,59145.55
2018-12-20T10:25:46.337Z,59143.49
2018-12-20T10:28:14.828Z,59144.52
2018-12-20T10:30:43.443Z,59136.30
2018-12-20T10:33:12.313Z,59144.52
2018-12-20T10:35:40.903Z,59150.68
2018-12-20T10:38:09.531Z,59127.05
2018-12-20T10:40:38.089Z,59172.26
2018-12-20T10:43:06.650Z,59139.38
2018-12-20T10:45:37.781Z,59112.67
2018-12-20T10:48:06.300Z,59136.30
2018-12-20T10:50:34.876Z,59115.75
2018-12-20T10:53:07.870Z,59115.75
2018-12-20T10:55:36.438Z,59116.78
2018-12-20T10:58:05.275Z,59119.86
2018-12-20T11:00:39.241Z,59128.08
2018-12-20T11:03:12.944Z,59100.34
2018-12-20T11:05:47.201Z,59084.93
2018-12-20T11:08:21.084Z,59094.18
2018-12-20T11:10:51.698Z,59115.75
2018-12-20T11:13:25.936Z,59104.45
2018-12-20T11:15:54.456Z,59111.64
2018-12-20T11:18:23.462Z,59117.81
2018-12-20T11:20:51.946Z,59090.07
2018-12-20T11:23:20.495Z,59126.03
2018-12-20T11:25:49.103Z,59111.64
2018-12-20T11:28:17.628Z,59131.16
2018-12-20T11:30:46.169Z,59107.54
2018-12-20T11:33:14.651Z,59086.98
2018-12-20T11:35:43.154Z,59094.18
2018-12-20T11:38:11.874Z,59085.96
2018-12-20T11:40:40.975Z,59056.17
2018-12-20T11:43:09.824Z,59108.56
2018-12-20T11:51:16.077Z,100714.51
2018-12-20T11:53:44.584Z,100702.88
2018-12-20T11:56:13.082Z,100694.95
2018-12-20T11:58:41.711Z,100697.77
2018-12-20T12:01:10.322Z,100697.48
2018-12-20T12:03:38.855Z,100694.90
2018-12-20T12:06:07.423Z,100693.97
2018-12-20T12:08:35.995Z,100689.13
2018-12-20T12:11:04.852Z,100687.72
2018-12-20T12:13:33.470Z,100681.85
2018-12-20T12:16:03.693Z,100695.16
2018-12-20T12:18:32.233Z,100685.58
2018-12-20T12:21:00.778Z,100683.72
2018-12-20T12:23:29.931Z,100680.71
2018-12-20T12:25:58.401Z,100671.77
2018-12-20T12:28:27.246Z,100676.80
2018-12-20T12:30:56.011Z,100677.36
2018-12-20T12:33:24.640Z,100672.14
2018-12-20T12:35:53.251Z,100666.55
2018-12-20T12:38:21.743Z,100664.28
2018-12-20T12:40:50.257Z,100669.62
2018-12-20T12:43:18.755Z,100664.28
2018-12-20T12:45:47.563Z,100655.52
2018-12-20T12:48:16.375Z,100666.73
2018-12-20T12:50:44.889Z,100664.22
2018-12-20T12:53:13.383Z,100668.51
2018-12-20T12:55:41.890Z,100666.36
2018-12-20T12:58:10.581Z,100667.58
2018-12-20T13:00:40.190Z,100668.42
2018-12-20T13:03:09.282Z,100668.25
2018-12-20T13:05:37.781Z,100664.13
2018-12-20T13:08:06.260Z,100659.97
2018-12-20T13:10:34.788Z,100661.14
2018-12-20T13:13:04.484Z,100667.60
2018-12-20T13:15:33.766Z,100659.22
2018-12-20T13:18:04.613Z,100655.30
2018-12-20T13:20:35.436Z,100661.83
2018-12-20T13:23:05.044Z,100661.17
2018-12-20T13:25:33.644Z,100658.66
2018-12-20T13:28:03.770Z,100659.95
2018-12-20T13:30:32.245Z,100661.64
2018-12-20T13:33:00.735Z,100649.44
2018-12-20T13:35:29.330Z,100652.23
2018-12-20T13:37:57.795Z,100663.31
2018-12-20T13:40:26.324Z,100658.09
2018-12-20T13:42:54.867Z,100657.65
2018-12-20T13:45:23.539Z,100659.52
2018-12-20T13:47:53.618Z,100664.81
2018-12-20T13:50:22.104Z,100656.52
2018-12-20T13:52:50.862Z,100655.30
2018-12-20T13:55:19.539Z,100658.55
2018-12-20T13:57:48.038Z,100664.79
2018-12-20T14:00:16.516Z,100666.22
2018-12-20T14:02:45.283Z,100663.79
2018-12-20T14:05:13.779Z,100670.11
2018-12-20T14:07:42.820Z,100664.97
2018-12-20T14:10:11.294Z,100673.45
2018-12-20T14:12:39.856Z,100674.09
2018-12-20T14:15:08.920Z,100670.27
2018-12-20T14:17:37.404Z,100669.06
2018-12-20T14:20:07.132Z,100668.31
2018-12-20T14:22:35.645Z,100663.36
2018-12-20T14:25:05.751Z,100672.48
2018-12-20T14:27:34.207Z,100669.94
2018-12-20T14:30:04.131Z,100666.11
2018-12-20T14:32:32.906Z,100662.29
2018-12-20T14:35:02.709Z,100671.15
2018-12-20T14:37:31.168Z,100672.08
2018-12-20T14:39:59.650Z,100674.22
2018-12-20T14:42:28.130Z,100669.94
2018-12-20T14:44:57.078Z,100666.03
2018-12-20T14:47:25.591Z,100668.63
2018-12-20T14:49:54.048Z,100669.38
2018-12-20T14:52:22.546Z,100680.06
2018-12-20T14:54:51.461Z,100674.31
2018-12-20T14:57:20.040Z,100673.55
2018-12-20T14:59:48.589Z,100677.64
2018-12-20T15:02:17.181Z,100683.95
2018-12-20T15:04:45.667Z,100680.96
2018-12-20T15:07:14.154Z,100685.13
2018-12-20T15:09:42.624Z,100685.30
2018-12-20T15:12:11.169Z,100687.31
2018-12-20T15:14:40.154Z,100685.34
2018-12-20T15:17:08.732Z,100680.04
2018-12-20T15:19:37.442Z,100679.38
2018-12-20T15:22:05.936Z,100673.66
2018-12-20T15:24:34.495Z,100671.98
2018-12-20T15:27:04.984Z,100681.72
2018-12-20T15:29:33.470Z,100681.00
2018-12-20T15:32:02.722Z,100683.14
2018-12-20T15:34:31.507Z,100681.08
2018-12-20T15:36:59.954Z,100684.60
2018-12-20T15:39:29.933Z,100687.08
2018-12-20T15:41:58.570Z,100685.98
2018-12-20T15:44:27.047Z,100689.13
2018-12-20T15:46:55.552Z,100693.20
2018-12-20T15:49:24.061Z,100692.98
2018-12-20T15:51:52.551Z,100688.06
2018-12-20T15:54:21.326Z,100690.28
2018-12-20T15:56:49.789Z,100690.37
2018-12-20T15:59:18.315Z,100691.67
2018-12-20T16:01:46.946Z,100686.16
2018-12-20T16:04:15.592Z,100694.35
2018-12-20T16:06:44.238Z,100693.89
2018-12-20T16:09:12.895Z,100692.59
2018-12-20T16:11:41.520Z,100695.57
2018-12-20T16:14:10.064Z,100697.98
2018-12-20T16:16:44.335Z,100702.64
2018-12-20T16:19:13.370Z,100701.72
2018-12-20T16:21:41.870Z,100717.25
2018-12-20T16:24:10.407Z,100713.73
2018-12-20T16:26:38.987Z,100718.85
2018-12-20T16:29:07.781Z,100719.31
2018-12-20T16:31:36.290Z,100720.61
2018-12-20T16:34:05.390Z,100717.17
2018-12-20T16:36:34.010Z,100721.91
2018-12-20T16:39:04.995Z,100724.05
2018-12-20T16:41:34.485Z,100725.36
2018-12-20T16:44:04.620Z,100720.45
2018-12-20T16:46:33.102Z,100726.12
2018-12-20T16:49:02.756Z,100726.58
2018-12-20T16:51:31.250Z,100725.66
2018-12-20T16:53:59.825Z,100725.49
2018-12-20T16:56:28.340Z,100728.47
2018-12-20T16:58:56.824Z,100729.78
2018-12-20T17:01:25.412Z,100734.98
2018-12-20T17:03:54.031Z,100731.00
2018-12-20T17:06:22.507Z,100734.06
2018-12-20T17:08:51.436Z,100724.57
2018-12-20T17:11:19.933Z,100724.57
2018-12-20T17:13:48.439Z,100724.87
2018-12-20T17:16:17.042Z,100723.11
2018-12-20T17:18:45.637Z,100719.20
2018-12-20T17:21:14.131Z,100723.86
2018-12-20T17:23:43.046Z,100720.50
2018-12-20T17:26:11.569Z,100717.60
2018-12-20T17:28:40.028Z,100716.30
2018-12-20T17:31:08.544Z,100714.16
2018-12-20T17:33:37.264Z,100721.13
2018-12-20T17:36:06.605Z,100717.60
2018-12-20T17:38:35.107Z,100719.83
2018-12-20T17:41:04.815Z,100715.00
2018-12-20T17:43:33.296Z,100711.09
2018-12-20T17:46:02.758Z,100711.02
2018-12-20T17:48:31.488Z,100709.17
2018-12-20T17:51:00.001Z,100715.22
2018-12-20T17:53:28.482Z,100718.08
2018-12-20T17:55:57.166Z,100720.98
2018-12-20T17:58:25.669Z,100725.27
2018-12-20T18:00:54.141Z,100724.80
2018-12-20T18:03:23.096Z,100717.38
2018-12-20T18:05:51.582Z,100714.77
2018-12-20T18:08:20.091Z,100713.09
2018-12-20T18:10:48.614Z,100711.41
2018-12-20T18:13:17.098Z,100715.14
2018-12-20T18:15:45.600Z,100713.47
2018-12-20T18:18:14.193Z,100709.09
2018-12-20T18:20:42.856Z,100710.02
2018-12-20T18:23:11.415Z,100713.55
2018-12-20T18:25:39.913Z,100708.27
2018-12-20T18:28:08.531Z,100703.52
2018-12-20T18:30:37.045Z,100708.64
2018-12-20T18:33:05.625Z,100702.97
2018-12-20T18:35:34.239Z,100701.67
2018-12-20T18:38:04.508Z,100698.22
2018-12-20T18:40:33.032Z,100705.11
2018-12-20T18:43:03.126Z,100709.86
2018-12-20T18:45:31.674Z,100707.55
2018-12-20T18:48:00.198Z,100705.32
2018-12-20T18:50:28.736Z,100707.38
2018-12-20T18:52:57.337Z,100710.36
2018-12-20T18:55:25.815Z,100718.26
2018-12-20T18:57:54.581Z,100712.13
2018-12-20T19:00:23.148Z,100711.58
2018-12-20T19:02:51.718Z,100714.19
2018-12-20T19:05:20.311Z,100715.75
2018-12-20T19:07:48.944Z,100714.56
2018-12-20T19:10:17.791Z,100718.47
2018-12-20T19:12:46.280Z,100702.84
2018-12-20T19:15:14.836Z,100704.95
2018-12-20T19:17:43.398Z,100714.64
2018-12-20T19:20:16.153Z,100704.15
2018-12-20T19:22:42.445Z,100702.73
2018-12-20T19:25:10.987Z,100711.22
2018-12-20T19:27:39.541Z,100710.75
2018-12-20T19:30:10.132Z,100704.70
2018-12-20T19:32:38.767Z,100702.48
2018-12-20T19:35:07.892Z,100704.33
2018-12-20T19:37:36.417Z,100707.69
2018-12-20T19:40:09.397Z,100704.70
2018-12-20T19:42:38.736Z,100705.25
2018-12-20T19:45:07.480Z,100704.70
2018-12-20T19:47:36.250Z,100710.67
2018-12-20T19:50:07.798Z,100710.04
2018-12-20T19:52:36.687Z,100715.33
2018-12-20T19:55:06.472Z,100711.80
2018-12-20T19:57:35.037Z,100715.70
2018-12-20T20:00:10.636Z,100707.44
2018-12-20T20:02:39.493Z,100701.38
2018-12-20T20:05:09.317Z,100702.69
2018-12-20T20:07:38.374Z,100700.38
2018-12-20T20:10:09.486Z,100707.55
2018-12-20T20:12:39.062Z,100705.33
2018-12-20T20:15:16.365Z,100701.22
2018-12-20T20:17:42.386Z,100697.98
2018-12-20T20:20:14.103Z,100698.36
2018-12-20T20:22:41.842Z,100702.27
2018-12-20T20:25:10.534Z,100699.87
2018-12-20T20:27:39.100Z,100707.52
2018-12-20T20:30:11.023Z,100699.23
2018-12-20T20:32:39.675Z,100706.67
2018-12-20T20:35:08.626Z,100697.38
2018-12-20T20:37:37.373Z,100697.00
2018-12-20T20:40:07.897Z,100694.69
2018-12-20T20:42:36.497Z,100699.81
2018-12-20T20:45:06.554Z,100694.02
2018-12-20T20:47:35.139Z,100701.95
2018-12-20T20:50:06.971Z,100699.35
2018-12-20T20:52:35.649Z,100687.63
2018-12-20T20:55:07.306Z,100690.95
2018-12-20T20:57:35.993Z,100690.34
2018-12-20T21:00:09.677Z,100689.94
2018-12-20T21:02:38.278Z,100694.02
2018-12-20T21:05:08.134Z,100690.78
2018-12-20T21:07:36.788Z,100699.23
2018-12-20T21:10:10.666Z,100705.02
2018-12-20T21:12:39.258Z,100705.20
2018-12-20T21:15:10.225Z,100709.19
2018-12-20T21:17:40.102Z,100711.42
2018-12-20T21:20:11.413Z,100696.80
2018-12-20T21:22:40.080Z,100695.03
2018-12-20T21:25:08.619Z,100685.66
2018-12-20T21:27:37.221Z,100692.72
2018-12-20T21:30:07.566Z,100681.20
2018-12-20T21:32:36.080Z,100682.30
2018-12-20T21:35:05.760Z,100680.65
2018-12-20T21:37:34.367Z,100669.47
2018-12-20T21:40:05.186Z,100669.38
2018-12-20T21:42:33.687Z,100667.04
2018-12-20T21:45:03.803Z,100660.90
2018-12-20T21:47:32.333Z,100659.97
2018-12-20T21:50:00.892Z,100663.36
2018-12-20T21:52:29.385Z,100668.02
2018-12-20T21:54:58.328Z,100667.00
2018-12-20T21:57:26.916Z,100672.05
2018-12-20T22:00:01.149Z,100669.16
2018-12-20T22:02:25.957Z,100665.88
2018-12-20T22:04:54.586Z,100675.47
2018-12-20T22:07:23.281Z,100671.55
2018-12-20T22:09:51.806Z,100668.11
2018-12-20T22:12:20.287Z,100667.19
2018-12-20T22:14:48.795Z,100669.94
2018-12-20T22:17:17.720Z,100667.65
2018-12-20T22:19:46.222Z,100664.58
2018-12-20T22:22:14.720Z,100659.28
2018-12-20T22:24:43.267Z,100666.81
2018-12-20T22:27:11.767Z,100673.41
2018-12-20T22:29:40.453Z,100673.90
2018-12-20T22:32:08.961Z,100674.16
2018-12-20T22:34:37.442Z,100670.63
2018-12-20T22:37:06.705Z,100681.52
2018-12-20T22:39:35.182Z,100668.77
2018-12-20T22:42:05.423Z,100662.26
2018-12-20T22:44:33.904Z,100649.60
2018-12-20T22:47:03.772Z,100657.89
2018-12-20T22:49:32.296Z,100651.75
2018-12-20T22:52:00.784Z,100657.16
2018-12-20T22:54:29.243Z,100657.63
2018-12-20T22:56:57.751Z,100661.53
2018-12-20T22:59:26.497Z,100661.53
2018-12-20T23:01:55.900Z,100665.35
2018-12-20T23:04:24.478Z,100651.39
2018-12-20T23:06:53.928Z,100652.78
2018-12-20T23:09:22.455Z,100656.31
2018-12-20T23:11:50.919Z,100657.06
2018-12-20T23:14:19.663Z,100655.74
2018-12-20T23:16:53.637Z,100657.13
2018-12-20T23:19:18.654Z,100641.67
2018-12-20T23:21:47.151Z,100648.71
2018-12-20T23:24:15.650Z,100647.79
2018-12-20T23:26:44.332Z,100652.25
2018-12-20T23:29:13.026Z,100650.20
2018-12-20T23:31:41.668Z,100639.95
2018-12-20T23:34:10.150Z,100644.41
2018-12-20T23:36:38.817Z,100642.27
2018-12-20T23:39:07.779Z,100647.09
2018-12-20T23:41:36.699Z,100642.27
2018-12-20T23:44:07.218Z,100634.34
2018-12-20T23:46:35.679Z,100646.69
2018-12-20T23:49:05.588Z,100633.47
2018-12-20T23:51:34.081Z,100630.86
2018-12-20T23:54:04.491Z,100634.86
2018-12-20T23:56:33.169Z,100637.92
2018-12-20T23:59:03.919Z,100628.17
